sensor_id;sensor_type;location;lat;lon;timestamp;pressure;altitude;pressure_sealevel;temperature;humidity
33185;BME280;19550;42.872;25.494;2023-06-22T00:00:10;96711.84;;;18.01;100.00
33185;BME280;19550;42.872;25.494;2023-06-22T00:02:37;96705.75;;;17.99;100.00
33185;BME280;19550;42.872;25.494;2023-06-22T00:05:05;96711.03;;;18.00;100.00
33185;BME280;19550;42.872;25.494;2023-06-22T00:07:33;96708.09;;;17.97;100.00
33185;BME280;19550;42.872;25.494;2023-06-22T00:10:00;96711.53;;;17.90;100.00
33185;BME280;19550;42.872;25.494;2023-06-22T00:12:27;96716.16;;;17.98;100.00
33185;BME280;19550;42.872;25.494;2023-06-22T00:14:53;96704.22;;;17.85;100.00
33185;BME280;19550;42.872;25.494;2023-06-22T00:17:20;96702.69;;;17.88;100.00
33185;BME280;19550;42.872;25.494;2023-06-22T00:19:47;96709.00;;;17.85;100.00
33185;BME280;19550;42.872;25.494;2023-06-22T00:22:18;96706.81;;;17.78;100.00
33185;BME280;19550;42.872;25.494;2023-06-22T00:24:48;96709.09;;;17.73;100.00
33185;BME280;19550;42.872;25.494;2023-06-22T00:27:15;96713.69;;;17.65;100.00
33185;BME280;19550;42.872;25.494;2023-06-22T00:29:42;96718.13;;;17.66;100.00
33185;BME280;19550;42.872;25.494;2023-06-22T00:32:08;96720.66;;;17.71;100.00
33185;BME280;19550;42.872;25.494;2023-06-22T00:34:35;96715.41;;;17.70;100.00
33185;BME280;19550;42.872;25.494;2023-06-22T00:37:02;96712.28;;;17.59;100.00
33185;BME280;19550;42.872;25.494;2023-06-22T00:39:29;96715.09;;;17.59;100.00
33185;BME280;19550;42.872;25.494;2023-06-22T00:42:00;96714.75;;;17.61;100.00
33185;BME280;19550;42.872;25.494;2023-06-22T00:44:27;96707.19;;;17.61;100.00
33185;BME280;19550;42.872;25.494;2023-06-22T00:46:54;96710.88;;;17.65;100.00
33185;BME280;19550;42.872;25.494;2023-06-22T00:49:21;96711.81;;;17.57;100.00
33185;BME280;19550;42.872;25.494;2023-06-22T00:51:48;96717.78;;;17.56;100.00
33185;BME280;19550;42.872;25.494;2023-06-22T00:54:15;96712.44;;;17.51;100.00
33185;BME280;19550;42.872;25.494;2023-06-22T00:56:42;96712.44;;;17.51;100.00
33185;BME280;19550;42.872;25.494;2023-06-22T00:59:10;96710.44;;;17.51;100.00
33185;BME280;19550;42.872;25.494;2023-06-22T01:01:38;96715.09;;;17.59;100.00
33185;BME280;19550;42.872;25.494;2023-06-22T01:04:06;96724.38;;;17.47;100.00
33185;BME280;19550;42.872;25.494;2023-06-22T01:06:38;96721.72;;;17.39;100.00
33185;BME280;19550;42.872;25.494;2023-06-22T01:09:11;96709.00;;;17.41;100.00
33185;BME280;19550;42.872;25.494;2023-06-22T01:11:44;96707.91;;;17.46;100.00
33185;BME280;19550;42.872;25.494;2023-06-22T01:14:17;96704.75;;;17.47;100.00
33185;BME280;19550;42.872;25.494;2023-06-22T01:16:48;96701.94;;;17.47;100.00
33185;BME280;19550;42.872;25.494;2023-06-22T01:19:35;96704.22;;;17.30;100.00
33185;BME280;19550;42.872;25.494;2023-06-22T01:22:05;96707.50;;;17.32;100.00
33185;BME280;19550;42.872;25.494;2023-06-22T01:24:48;96695.81;;;17.30;100.00
33185;BME280;19550;42.872;25.494;2023-06-22T01:27:28;96693.03;;;17.30;100.00
33185;BME280;19550;42.872;25.494;2023-06-22T01:29:59;96689.19;;;17.22;100.00
33185;BME280;19550;42.872;25.494;2023-06-22T01:32:30;96691.00;;;17.15;100.00
33185;BME280;19550;42.872;25.494;2023-06-22T01:35:01;96690.34;;;17.05;100.00
33185;BME280;19550;42.872;25.494;2023-06-22T01:37:28;96692.41;;;17.08;100.00
33185;BME280;19550;42.872;25.494;2023-06-22T01:39:58;96696.28;;;17.04;100.00
33185;BME280;19550;42.872;25.494;2023-06-22T01:42:25;96694.03;;;17.09;100.00
33185;BME280;19550;42.872;25.494;2023-06-22T01:44:53;96698.16;;;17.00;100.00
33185;BME280;19550;42.872;25.494;2023-06-22T01:47:22;96706.66;;;17.03;100.00
33185;BME280;19550;42.872;25.494;2023-06-22T01:49:49;96709.94;;;17.05;100.00
33185;BME280;19550;42.872;25.494;2023-06-22T01:52:17;96703.53;;;17.05;100.00
33185;BME280;19550;42.872;25.494;2023-06-22T01:54:44;96712.78;;;16.93;100.00
33185;BME280;19550;42.872;25.494;2023-06-22T01:57:11;96717.66;;;16.96;100.00
33185;BME280;19550;42.872;25.494;2023-06-22T01:59:47;96723.22;;;17.08;100.00
33185;BME280;19550;42.872;25.494;2023-06-22T02:02:16;96720.22;;;17.01;100.00
33185;BME280;19550;42.872;25.494;2023-06-22T02:04:51;96722.78;;;17.06;100.00
33185;BME280;19550;42.872;25.494;2023-06-22T02:07:18;96719.84;;;17.03;100.00
33185;BME280;19550;42.872;25.494;2023-06-22T02:09:48;96718.59;;;17.00;100.00
33185;BME280;19550;42.872;25.494;2023-06-22T02:12:21;96720.94;;;16.98;100.00
33185;BME280;19550;42.872;25.494;2023-06-22T02:14:49;96718.94;;;16.99;100.00
33185;BME280;19550;42.872;25.494;2023-06-22T02:17:17;96721.97;;;17.06;100.00
33185;BME280;19550;42.872;25.494;2023-06-22T02:19:44;96729.34;;;16.86;100.00
33185;BME280;19550;42.872;25.494;2023-06-22T02:22:13;96727.41;;;16.75;100.00
33185;BME280;19550;42.872;25.494;2023-06-22T02:24:40;96720.41;;;16.68;100.00
33185;BME280;19550;42.872;25.494;2023-06-22T02:27:07;96729.97;;;16.67;100.00
33185;BME280;19550;42.872;25.494;2023-06-22T02:29:34;96731.00;;;16.63;100.00
33185;BME280;19550;42.872;25.494;2023-06-22T02:32:00;96723.56;;;16.55;100.00
33185;BME280;19550;42.872;25.494;2023-06-22T02:34:27;96732.97;;;16.50;100.00
33185;BME280;19550;42.872;25.494;2023-06-22T02:36:54;96735.69;;;16.47;100.00
33185;BME280;19550;42.872;25.494;2023-06-22T02:39:24;96740.31;;;16.43;100.00
33185;BME280;19550;42.872;25.494;2023-06-22T02:41:52;96738.72;;;16.42;100.00
33185;BME280;19550;42.872;25.494;2023-06-22T02:44:20;96744.06;;;16.47;100.00
33185;BME280;19550;42.872;25.494;2023-06-22T02:46:47;96739.53;;;16.54;100.00
33185;BME280;19550;42.872;25.494;2023-06-22T02:49:14;96739.28;;;16.59;100.00
33185;BME280;19550;42.872;25.494;2023-06-22T02:51:44;96741.94;;;16.56;100.00
33185;BME280;19550;42.872;25.494;2023-06-22T02:54:11;96739.53;;;16.54;100.00
33185;BME280;19550;42.872;25.494;2023-06-22T02:56:39;96728.91;;;16.48;100.00
33185;BME280;19550;42.872;25.494;2023-06-22T02:59:09;96738.47;;;16.59;100.00
33185;BME280;19550;42.872;25.494;2023-06-22T03:01:37;96743.94;;;16.55;100.00
33185;BME280;19550;42.872;25.494;2023-06-22T03:04:05;96739.16;;;16.56;100.00
33185;BME280;19550;42.872;25.494;2023-06-22T03:06:32;96739.97;;;16.56;100.00
33185;BME280;19550;42.872;25.494;2023-06-22T03:09:02;96739.16;;;16.56;100.00
33185;BME280;19550;42.872;25.494;2023-06-22T03:11:30;96744.31;;;16.66;100.00
33185;BME280;19550;42.872;25.494;2023-06-22T03:13:59;96737.91;;;16.65;100.00
33185;BME280;19550;42.872;25.494;2023-06-22T03:16:26;96747.81;;;16.75;100.00
33185;BME280;19550;42.872;25.494;2023-06-22T03:18:53;96753.75;;;16.74;100.00
33185;BME280;19550;42.872;25.494;2023-06-22T03:21:22;96748.50;;;16.84;100.00
33185;BME280;19550;42.872;25.494;2023-06-22T03:23:49;96756.75;;;16.93;100.00
33185;BME280;19550;42.872;25.494;2023-06-22T03:26:16;96758.50;;;16.97;100.00
33185;BME280;19550;42.872;25.494;2023-06-22T03:28:43;96754.78;;;16.93;100.00
33185;BME280;19550;42.872;25.494;2023-06-22T03:31:12;96757.22;;;16.83;100.00
33185;BME280;19550;42.872;25.494;2023-06-22T03:33:38;96756.06;;;16.84;100.00
33185;BME280;19550;42.872;25.494;2023-06-22T03:36:05;96770.78;;;16.81;100.00
33185;BME280;19550;42.872;25.494;2023-06-22T03:38:32;96770.88;;;16.84;100.00
33185;BME280;19550;42.872;25.494;2023-06-22T03:40:59;96759.44;;;16.89;100.00
33185;BME280;19550;42.872;25.494;2023-06-22T03:43:26;96767.59;;;17.06;100.00
33185;BME280;19550;42.872;25.494;2023-06-22T03:45:53;96773.19;;;17.06;100.00
33185;BME280;19550;42.872;25.494;2023-06-22T03:48:21;96772.00;;;17.20;100.00
33185;BME280;19550;42.872;25.494;2023-06-22T03:50:48;96768.81;;;17.33;100.00
33185;BME280;19550;42.872;25.494;2023-06-22T03:53:14;96781.13;;;17.44;100.00
33185;BME280;19550;42.872;25.494;2023-06-22T03:55:48;96775.28;;;17.49;100.00
33185;BME280;19550;42.872;25.494;2023-06-22T03:58:16;96775.94;;;17.59;100.00
33185;BME280;19550;42.872;25.494;2023-06-22T04:00:44;96769.84;;;17.69;100.00
33185;BME280;19550;42.872;25.494;2023-06-22T04:03:11;96768.06;;;17.76;100.00
33185;BME280;19550;42.872;25.494;2023-06-22T04:05:39;96774.06;;;17.91;100.00
33185;BME280;19550;42.872;25.494;2023-06-22T04:08:06;96768.19;;;17.96;100.00
33185;BME280;19550;42.872;25.494;2023-06-22T04:10:33;96772.00;;;18.03;100.00
33185;BME280;19550;42.872;25.494;2023-06-22T04:13:00;96772.09;;;18.07;100.00
33185;BME280;19550;42.872;25.494;2023-06-22T04:15:27;96780.09;;;18.20;100.00
33185;BME280;19550;42.872;25.494;2023-06-22T04:17:54;96775.63;;;18.35;100.00
33185;BME280;19550;42.872;25.494;2023-06-22T04:20:22;96769.50;;;18.45;100.00
33185;BME280;19550;42.872;25.494;2023-06-22T04:22:52;96775.22;;;18.64;100.00
33185;BME280;19550;42.872;25.494;2023-06-22T04:25:19;96789.63;;;18.63;100.00
33185;BME280;19550;42.872;25.494;2023-06-22T04:27:47;96783.47;;;18.57;100.00
33185;BME280;19550;42.872;25.494;2023-06-22T04:30:15;96777.03;;;18.73;100.00
33185;BME280;19550;42.872;25.494;2023-06-22T04:32:42;96786.34;;;18.77;100.00
33185;BME280;19550;42.872;25.494;2023-06-22T04:35:09;96783.09;;;18.75;100.00
33185;BME280;19550;42.872;25.494;2023-06-22T04:37:37;96784.97;;;18.86;100.00
33185;BME280;19550;42.872;25.494;2023-06-22T04:40:07;96786.81;;;18.79;100.00
33185;BME280;19550;42.872;25.494;2023-06-22T04:42:34;96783.69;;;18.99;100.00
33185;BME280;19550;42.872;25.494;2023-06-22T04:45:02;96786.00;;;19.13;100.00
33185;BME280;19550;42.872;25.494;2023-06-22T04:47:29;96792.97;;;19.19;100.00
33185;BME280;19550;42.872;25.494;2023-06-22T04:49:56;96790.69;;;19.25;100.00
33185;BME280;19550;42.872;25.494;2023-06-22T04:52:23;96795.44;;;19.21;100.00
33185;BME280;19550;42.872;25.494;2023-06-22T04:54:50;96785.94;;;19.29;100.00
33185;BME280;19550;42.872;25.494;2023-06-22T04:57:22;96785.72;;;19.53;100.00
33185;BME280;19550;42.872;25.494;2023-06-22T04:59:56;96785.06;;;19.79;100.00
33185;BME280;19550;42.872;25.494;2023-06-22T05:02:22;96787.75;;;19.95;100.00
33185;BME280;19550;42.872;25.494;2023-06-22T05:04:58;96784.53;;;20.15;100.00
33185;BME280;19550;42.872;25.494;2023-06-22T05:07:25;96799.06;;;20.37;100.00
33185;BME280;19550;42.872;25.494;2023-06-22T05:09:52;96786.16;;;20.58;100.00
33185;BME280;19550;42.872;25.494;2023-06-22T05:12:18;96786.47;;;20.76;100.00
33185;BME280;19550;42.872;25.494;2023-06-22T05:14:47;96788.31;;;20.91;100.00
33185;BME280;19550;42.872;25.494;2023-06-22T05:17:14;96789.78;;;21.08;100.00
33185;BME280;19550;42.872;25.494;2023-06-22T05:19:44;96795.28;;;21.24;100.00
33185;BME280;19550;42.872;25.494;2023-06-22T05:22:14;96785.31;;;21.30;100.00
33185;BME280;19550;42.872;25.494;2023-06-22T05:24:41;96789.59;;;21.47;100.00
33185;BME280;19550;42.872;25.494;2023-06-22T05:27:08;96788.63;;;21.65;100.00
33185;BME280;19550;42.872;25.494;2023-06-22T05:29:35;96789.56;;;21.76;100.00
33185;BME280;19550;42.872;25.494;2023-06-22T05:32:04;96785.25;;;21.86;100.00
33185;BME280;19550;42.872;25.494;2023-06-22T05:34:31;96791.81;;;21.94;100.00
33185;BME280;19550;42.872;25.494;2023-06-22T05:36:58;96794.63;;;21.94;100.00
33185;BME280;19550;42.872;25.494;2023-06-22T05:39:25;96794.88;;;22.11;100.00
33185;BME280;19550;42.872;25.494;2023-06-22T05:41:52;96796.31;;;22.35;100.00
33185;BME280;19550;42.872;25.494;2023-06-22T05:44:19;96796.53;;;22.56;100.00
33185;BME280;19550;42.872;25.494;2023-06-22T05:46:46;96799.97;;;22.73;100.00
33185;BME280;19550;42.872;25.494;2023-06-22T05:49:15;96791.59;;;22.87;100.00
33185;BME280;19550;42.872;25.494;2023-06-22T05:51:42;96792.56;;;23.05;99.67
33185;BME280;19550;42.872;25.494;2023-06-22T05:54:09;96791.91;;;23.26;98.79
33185;BME280;19550;42.872;25.494;2023-06-22T05:56:38;96788.81;;;23.49;98.24
33185;BME280;19550;42.872;25.494;2023-06-22T05:59:07;96786.91;;;23.70;97.21
33185;BME280;19550;42.872;25.494;2023-06-22T06:01:34;96793.03;;;23.83;95.99
33185;BME280;19550;42.872;25.494;2023-06-22T06:04:01;96793.50;;;23.96;96.48
33185;BME280;19550;42.872;25.494;2023-06-22T06:06:30;96800.06;;;24.17;95.99
33185;BME280;19550;42.872;25.494;2023-06-22T06:08:57;96793.28;;;24.43;95.00
33185;BME280;19550;42.872;25.494;2023-06-22T06:11:25;96799.78;;;24.51;93.50
33185;BME280;19550;42.872;25.494;2023-06-22T06:13:51;96798.59;;;24.66;92.68
33185;BME280;19550;42.872;25.494;2023-06-22T06:16:18;96801.84;;;24.86;90.43
33185;BME280;19550;42.872;25.494;2023-06-22T06:18:45;96803.50;;;24.98;89.83
33185;BME280;19550;42.872;25.494;2023-06-22T06:21:13;96805.13;;;24.99;85.02
33185;BME280;19550;42.872;25.494;2023-06-22T06:23:42;96813.22;;;25.18;82.26
33185;BME280;19550;42.872;25.494;2023-06-22T06:26:09;96811.56;;;25.42;83.31
33185;BME280;19550;42.872;25.494;2023-06-22T06:28:36;96810.34;;;25.57;81.68
33185;BME280;19550;42.872;25.494;2023-06-22T06:31:02;96814.81;;;25.58;80.75
33185;BME280;19550;42.872;25.494;2023-06-22T06:33:32;96812.38;;;25.63;81.75
33185;BME280;19550;42.872;25.494;2023-06-22T06:35:59;96814.72;;;25.93;81.32
33185;BME280;19550;42.872;25.494;2023-06-22T06:38:27;96806.97;;;26.01;80.65
33185;BME280;19550;42.872;25.494;2023-06-22T06:40:56;96813.44;;;26.12;81.22
33185;BME280;19550;42.872;25.494;2023-06-22T06:43:22;96807.28;;;26.28;80.85
33185;BME280;19550;42.872;25.494;2023-06-22T06:45:50;96817.44;;;26.32;79.80
33185;BME280;19550;42.872;25.494;2023-06-22T06:48:17;96825.00;;;26.53;78.84
33185;BME280;19550;42.872;25.494;2023-06-22T06:50:44;96827.78;;;26.71;79.15
33185;BME280;19550;42.872;25.494;2023-06-22T06:53:10;96810.22;;;26.79;79.05
33185;BME280;19550;42.872;25.494;2023-06-22T06:55:38;96809.75;;;26.88;77.77
33185;BME280;19550;42.872;25.494;2023-06-22T06:58:06;96817.00;;;27.00;78.11
33185;BME280;19550;42.872;25.494;2023-06-22T07:00:35;96816.53;;;27.08;77.33
33185;BME280;19550;42.872;25.494;2023-06-22T07:03:02;96813.38;;;26.99;78.36
33185;BME280;19550;42.872;25.494;2023-06-22T07:05:29;96811.78;;;26.95;79.36
33185;BME280;19550;42.872;25.494;2023-06-22T07:07:56;96821.41;;;27.11;79.07
33185;BME280;19550;42.872;25.494;2023-06-22T07:10:23;96814.88;;;27.14;78.42
33185;BME280;19550;42.872;25.494;2023-06-22T07:12:50;96827.81;;;27.22;78.36
33185;BME280;19550;42.872;25.494;2023-06-22T07:15:18;96818.44;;;27.25;79.37
33185;BME280;19550;42.872;25.494;2023-06-22T07:17:45;96821.34;;;27.18;77.45
33185;BME280;19550;42.872;25.494;2023-06-22T07:20:12;96823.69;;;27.31;78.89
33185;BME280;19550;42.872;25.494;2023-06-22T07:22:39;96820.28;;;27.46;78.03
33185;BME280;19550;42.872;25.494;2023-06-22T07:25:07;96825.50;;;27.58;77.83
33185;BME280;19550;42.872;25.494;2023-06-22T07:27:36;96825.13;;;27.49;78.15
33185;BME280;19550;42.872;25.494;2023-06-22T07:30:06;96822.47;;;27.73;78.83
33185;BME280;19550;42.872;25.494;2023-06-22T07:32:34;96825.16;;;27.90;78.06
33185;BME280;19550;42.872;25.494;2023-06-22T07:35:01;96830.94;;;27.83;76.21
33185;BME280;19550;42.872;25.494;2023-06-22T07:37:29;96821.41;;;27.97;77.29
33185;BME280;19550;42.872;25.494;2023-06-22T07:39:57;96832.09;;;27.89;76.59
33185;BME280;19550;42.872;25.494;2023-06-22T07:42:24;96822.25;;;27.94;76.55
33185;BME280;19550;42.872;25.494;2023-06-22T07:44:51;96818.84;;;28.06;76.17
33185;BME280;19550;42.872;25.494;2023-06-22T07:47:18;96817.00;;;28.26;77.03
33185;BME280;19550;42.872;25.494;2023-06-22T07:49:46;96832.38;;;28.36;75.59
33185;BME280;19550;42.872;25.494;2023-06-22T07:52:13;96828.84;;;28.55;75.12
33185;BME280;19550;42.872;25.494;2023-06-22T07:54:40;96825.34;;;28.44;73.13
33185;BME280;19550;42.872;25.494;2023-06-22T07:57:07;96828.94;;;28.48;74.85
33185;BME280;19550;42.872;25.494;2023-06-22T07:59:34;96827.13;;;28.61;73.98
33185;BME280;19550;42.872;25.494;2023-06-22T08:02:00;96826.13;;;28.78;74.11
33185;BME280;19550;42.872;25.494;2023-06-22T08:04:28;96822.91;;;29.00;74.24
33185;BME280;19550;42.872;25.494;2023-06-22T08:06:58;96822.97;;;28.96;72.37
33185;BME280;19550;42.872;25.494;2023-06-22T08:09:27;96825.00;;;29.22;72.66
33185;BME280;19550;42.872;25.494;2023-06-22T08:11:54;96828.28;;;29.21;70.75
33185;BME280;19550;42.872;25.494;2023-06-22T08:14:23;96828.81;;;29.39;71.57
33185;BME280;19550;42.872;25.494;2023-06-22T08:16:49;96824.84;;;29.56;72.26
33185;BME280;19550;42.872;25.494;2023-06-22T08:19:16;96821.44;;;29.65;69.52
33185;BME280;19550;42.872;25.494;2023-06-22T08:21:43;96807.06;;;29.45;71.10
33185;BME280;19550;42.872;25.494;2023-06-22T08:24:11;96814.25;;;29.57;70.67
33185;BME280;19550;42.872;25.494;2023-06-22T08:26:38;96815.91;;;29.78;70.86
33185;BME280;19550;42.872;25.494;2023-06-22T08:29:05;96817.28;;;29.70;68.96
33185;BME280;19550;42.872;25.494;2023-06-22T08:31:32;96823.19;;;29.32;68.15
33185;BME280;19550;42.872;25.494;2023-06-22T08:33:59;96821.75;;;29.20;71.17
33185;BME280;19550;42.872;25.494;2023-06-22T08:36:26;96813.38;;;29.33;70.64
33185;BME280;19550;42.872;25.494;2023-06-22T08:38:55;96814.31;;;29.73;72.76
33185;BME280;19550;42.872;25.494;2023-06-22T08:41:28;96822.03;;;29.99;69.03
33185;BME280;19550;42.872;25.494;2023-06-22T08:43:55;96819.03;;;30.07;68.30
33185;BME280;19550;42.872;25.494;2023-06-22T08:46:22;96819.25;;;29.96;67.34
33185;BME280;19550;42.872;25.494;2023-06-22T08:48:56;96813.97;;;30.14;67.02
33185;BME280;19550;42.872;25.494;2023-06-22T08:51:23;96810.25;;;30.17;65.87
33185;BME280;19550;42.872;25.494;2023-06-22T08:53:50;96817.56;;;29.75;65.97
33185;BME280;19550;42.872;25.494;2023-06-22T08:56:17;96818.00;;;29.97;59.19
33185;BME280;19550;42.872;25.494;2023-06-22T08:58:45;96816.09;;;30.10;57.21
33185;BME280;19550;42.872;25.494;2023-06-22T09:01:12;96819.16;;;30.39;61.81
33185;BME280;19550;42.872;25.494;2023-06-22T09:03:40;96826.38;;;30.27;54.62
33185;BME280;19550;42.872;25.494;2023-06-22T09:06:07;96819.81;;;30.66;53.40
33185;BME280;19550;42.872;25.494;2023-06-22T09:08:35;96821.16;;;30.62;53.46
33185;BME280;19550;42.872;25.494;2023-06-22T09:11:01;96816.31;;;30.39;51.99
33185;BME280;19550;42.872;25.494;2023-06-22T09:13:30;96821.00;;;30.69;57.01
33185;BME280;19550;42.872;25.494;2023-06-22T09:15:59;96810.72;;;31.07;56.88
33185;BME280;19550;42.872;25.494;2023-06-22T09:18:25;96818.50;;;31.39;56.12
33185;BME280;19550;42.872;25.494;2023-06-22T09:20:52;96822.09;;;30.75;55.87
33185;BME280;19550;42.872;25.494;2023-06-22T09:23:19;96821.66;;;30.76;57.17
33185;BME280;19550;42.872;25.494;2023-06-22T09:25:46;96822.56;;;30.54;56.67
33185;BME280;19550;42.872;25.494;2023-06-22T09:28:13;96818.78;;;30.76;58.13
33185;BME280;19550;42.872;25.494;2023-06-22T09:30:40;96815.34;;;31.01;59.65
33185;BME280;19550;42.872;25.494;2023-06-22T09:33:08;96825.34;;;31.29;49.91
33185;BME280;19550;42.872;25.494;2023-06-22T09:35:35;96816.53;;;31.52;48.74
33185;BME280;19550;42.872;25.494;2023-06-22T09:38:02;96820.88;;;31.61;48.79
33185;BME280;19550;42.872;25.494;2023-06-22T09:40:29;96815.88;;;31.93;47.58
33185;BME280;19550;42.872;25.494;2023-06-22T09:42:55;96812.44;;;31.98;48.91
33185;BME280;19550;42.872;25.494;2023-06-22T09:45:22;96810.19;;;32.06;49.10
33185;BME280;19550;42.872;25.494;2023-06-22T09:47:49;96811.72;;;32.11;47.84
33185;BME280;19550;42.872;25.494;2023-06-22T09:50:17;96808.84;;;32.40;47.82
33185;BME280;19550;42.872;25.494;2023-06-22T09:52:44;96814.63;;;32.52;47.01
33185;BME280;19550;42.872;25.494;2023-06-22T09:55:16;96801.66;;;32.60;47.85
33185;BME280;19550;42.872;25.494;2023-06-22T09:57:43;96803.31;;;32.74;46.91
33185;BME280;19550;42.872;25.494;2023-06-22T10:00:11;96810.59;;;32.37;47.29
33185;BME280;19550;42.872;25.494;2023-06-22T10:02:38;96801.59;;;31.77;45.35
33185;BME280;19550;42.872;25.494;2023-06-22T10:05:06;96805.91;;;31.98;47.45
33185;BME280;19550;42.872;25.494;2023-06-22T10:07:37;96806.53;;;31.44;46.90
33185;BME280;19550;42.872;25.494;2023-06-22T10:10:08;96801.69;;;31.57;48.39
33185;BME280;19550;42.872;25.494;2023-06-22T10:12:35;96812.13;;;31.96;45.33
33185;BME280;19550;42.872;25.494;2023-06-22T10:15:03;96802.19;;;31.85;45.33
33185;BME280;19550;42.872;25.494;2023-06-22T10:17:30;96812.66;;;31.91;46.75
33185;BME280;19550;42.872;25.494;2023-06-22T10:19:57;96804.66;;;32.15;44.42
33185;BME280;19550;42.872;25.494;2023-06-22T10:22:24;96803.72;;;32.47;43.60
33185;BME280;19550;42.872;25.494;2023-06-22T10:24:52;96806.56;;;32.47;44.28
33185;BME280;19550;42.872;25.494;2023-06-22T10:27:19;96800.84;;;32.47;43.50
33185;BME280;19550;42.872;25.494;2023-06-22T10:29:45;96800.09;;;32.85;43.35
33185;BME280;19550;42.872;25.494;2023-06-22T10:32:12;96807.00;;;32.87;40.98
33185;BME280;19550;42.872;25.494;2023-06-22T10:34:39;96793.69;;;33.06;42.93
33185;BME280;19550;42.872;25.494;2023-06-22T10:37:06;96792.78;;;33.09;44.48
33185;BME280;19550;42.872;25.494;2023-06-22T10:39:33;96789.09;;;33.34;42.14
33185;BME280;19550;42.872;25.494;2023-06-22T10:42:01;96790.09;;;33.52;43.10
33185;BME280;19550;42.872;25.494;2023-06-22T10:44:28;96795.59;;;33.72;42.11
33185;BME280;19550;42.872;25.494;2023-06-22T10:46:54;96796.09;;;33.71;41.25
33185;BME280;19550;42.872;25.494;2023-06-22T10:49:21;96793.88;;;33.62;41.58
33185;BME280;19550;42.872;25.494;2023-06-22T10:51:48;96785.78;;;33.23;45.13
33185;BME280;19550;42.872;25.494;2023-06-22T10:54:15;96785.34;;;33.24;46.29
33185;BME280;19550;42.872;25.494;2023-06-22T10:56:43;96769.44;;;33.20;47.02
33185;BME280;19550;42.872;25.494;2023-06-22T10:59:11;96778.06;;;33.07;44.04
33185;BME280;19550;42.872;25.494;2023-06-22T11:01:38;96778.50;;;32.67;45.67
33185;BME280;19550;42.872;25.494;2023-06-22T11:04:05;96781.53;;;32.35;47.78
33185;BME280;19550;42.872;25.494;2023-06-22T11:06:32;96770.28;;;32.53;45.97
33185;BME280;19550;42.872;25.494;2023-06-22T11:08:59;96769.44;;;32.82;45.08
33185;BME280;19550;42.872;25.494;2023-06-22T11:11:26;96771.63;;;33.03;43.11
33185;BME280;19550;42.872;25.494;2023-06-22T11:13:52;96783.00;;;33.19;42.65
33185;BME280;19550;42.872;25.494;2023-06-22T11:16:20;96782.63;;;33.04;43.63
33185;BME280;19550;42.872;25.494;2023-06-22T11:18:47;96777.69;;;33.18;43.96
33185;BME280;19550;42.872;25.494;2023-06-22T11:21:14;96780.59;;;33.30;42.77
33185;BME280;19550;42.872;25.494;2023-06-22T11:23:41;96786.16;;;33.72;43.30
33185;BME280;19550;42.872;25.494;2023-06-22T11:26:08;96783.78;;;33.92;41.34
33185;BME280;19550;42.872;25.494;2023-06-22T11:28:35;96787.31;;;33.62;42.41
33185;BME280;19550;42.872;25.494;2023-06-22T11:31:02;96787.69;;;33.38;42.33
33185;BME280;19550;42.872;25.494;2023-06-22T11:33:31;96787.06;;;32.55;45.12
33185;BME280;19550;42.872;25.494;2023-06-22T11:35:58;96790.31;;;31.99;55.59
33185;BME280;19550;42.872;25.494;2023-06-22T11:38:25;96786.63;;;31.53;58.16
33185;BME280;19550;42.872;25.494;2023-06-22T11:40:52;96784.19;;;31.84;52.57
33185;BME280;19550;42.872;25.494;2023-06-22T11:43:19;96781.84;;;32.24;50.66
33185;BME280;19550;42.872;25.494;2023-06-22T11:45:46;96777.84;;;33.01;49.58
33185;BME280;19550;42.872;25.494;2023-06-22T11:48:13;96785.38;;;33.46;46.51
33185;BME280;19550;42.872;25.494;2023-06-22T11:50:41;96784.75;;;33.89;44.25
33185;BME280;19550;42.872;25.494;2023-06-22T11:53:08;96786.50;;;34.08;42.60
33185;BME280;19550;42.872;25.494;2023-06-22T11:55:35;96782.75;;;34.20;41.69
33185;BME280;19550;42.872;25.494;2023-06-22T11:58:02;96777.34;;;34.44;43.48
33185;BME280;19550;42.872;25.494;2023-06-22T12:00:31;96779.81;;;34.55;42.06
33185;BME280;19550;42.872;25.494;2023-06-22T12:02:57;96770.56;;;34.60;40.88
33185;BME280;19550;42.872;25.494;2023-06-22T12:05:24;96768.47;;;34.29;40.71
33185;BME280;19550;42.872;25.494;2023-06-22T12:07:54;96770.91;;;33.49;46.47
33185;BME280;19550;42.872;25.494;2023-06-22T12:10:22;96773.31;;;33.38;48.94
33185;BME280;19550;42.872;25.494;2023-06-22T12:12:50;96766.56;;;33.32;51.52
33185;BME280;19550;42.872;25.494;2023-06-22T12:15:17;96764.06;;;33.69;44.99
33185;BME280;19550;42.872;25.494;2023-06-22T12:17:44;96758.66;;;33.83;41.82
33185;BME280;19550;42.872;25.494;2023-06-22T12:20:11;96769.84;;;34.03;42.08
33185;BME280;19550;42.872;25.494;2023-06-22T12:22:38;96770.50;;;34.07;43.08
33185;BME280;19550;42.872;25.494;2023-06-22T12:25:07;96768.53;;;33.82;44.89
33185;BME280;19550;42.872;25.494;2023-06-22T12:27:34;96766.13;;;32.83;45.16
33185;BME280;19550;42.872;25.494;2023-06-22T12:30:01;96766.31;;;33.39;47.79
33185;BME280;19550;42.872;25.494;2023-06-22T12:32:28;96772.88;;;33.40;44.34
33185;BME280;19550;42.872;25.494;2023-06-22T12:34:55;96770.66;;;33.91;44.24
33185;BME280;19550;42.872;25.494;2023-06-22T12:37:22;96758.66;;;33.83;44.45
33185;BME280;19550;42.872;25.494;2023-06-22T12:39:49;96763.47;;;34.08;43.25
33185;BME280;19550;42.872;25.494;2023-06-22T12:42:17;96768.44;;;34.08;45.50
33185;BME280;19550;42.872;25.494;2023-06-22T12:44:46;96762.03;;;34.25;41.94
33185;BME280;19550;42.872;25.494;2023-06-22T12:47:13;96764.56;;;34.45;42.45